Ko Samui, Thailand

12:56 AM ICT on July 30, 2015 (GMT +0700)
SamuiWebCam.com @ The Jungle Club, Koh Samui, Thailand | | Change Station
CLOSE
Current Station
Personal Weather Station
Location: Thailand,
Elevation: 492 ft
Nearby Weather Stations

Elev 492 ft 9.50 °N, 100.05 °E | Updated 10 seconds ago

Mostly Cloudy
Mostly Cloudy
79.9 °F
Feels Like 85 °F
N
0.0
Wind Variable Wind from West
Gusts 0.0 mph

Today
High -- | Low -- °F
--% Chance of Precip.
Yesterday
High -- | Low -- °F
Precip. -- in
6:09 AM 6:42 PM
Waxing Gibbous, 96% visible
Pressure 29.92 in
Visibility 5.0 miles
Clouds Few 2000 ft
Mostly Cloudy 30000 ft
Heat Index 85 °F
Dew Point 77 °F
Humidity 90%
Rainfall 0.00 in
Snow Depth Not available.
UV 0.0 out of 12
Pollen Not available.
Air Quality Not available.
Flu Activity Not available.
METAR VTSM 291600Z 00000KT 8000 FEW020 BKN300 29/25 Q1013 A2992

More Conditions Fewer Conditions

Pressure 29.92 in
Visibility 5.0 miles
Clouds Few 2000 ft
Mostly Cloudy 30000 ft
Heat Index 85 °F
Dew Point 77 °F
Humidity 90%
Rainfall 0.00 in
Snow Depth Not available.
UV 0.0 out of 12
Pollen Not available.
Air Quality Not available.
Flu Activity Not available.
METAR VTSM 291600Z 00000KT 8000 FEW020 BKN300 29/25 Q1013 A2992

More Conditions Fewer Conditions

10-Day Weather Forecast

×

Almanac

Astronomy

Jul. 30, 2015 Rise Set
Actual Time
Civil Twilight
Nautical Twilight
Astronomical Twilight
Moon
Length of Visible Light
Length of Day
Tomorrow will be .
, % of the Moon is Illuminated

Today's Extremes

Country Highs Country Lows

Community

WunderPhotos

Upload Photos

1,842,135 photos uploaded!

WunderBlogs® & News

Nearby

Air Quality

  Air Quality AQ Index Pollutant
Not available.

Snow Depth

Station Depth Elevation

Earthquake Activity

City Distance Mag. Time & Date
Minimum magnitude displayed is 2.5.

Coastal Water Temperatures

Place Temperature

Stations

Nearby Weather Stations

Station Location Temp. Windchill Dew Point Humidity Wind Precip. Elev Updated Type